Time;durP1;ratioP1;P1;durP2;ratioP2;P2;SDS_P1;SDS_P2;PMS_P1;PMS_P2;Temp;Humidity;BMP_temperature;BMP_pressure;BME280_temperature;BME280_humidity;BME280_pressure;Samples;Min_cycle;Max_cycle;Signal;HPM_P1;HPM_P2
2022/09/25 00:00:22;;;;;;;16.52;5.38;;;15.60;99.90;;;;;;5027615;28;20471;-69
2022/09/25 00:02:48;;;;;;;12.38;4.53;;;15.50;99.90;;;;;;5028730;28;20852;-68
2022/09/25 00:05:14;;;;;;;14.57;5.32;;;15.50;99.90;;;;;;5030364;28;20083;-69
2022/09/25 00:07:39;;;;;;;12.95;4.95;;;15.50;99.90;;;;;;5029095;28;20032;-68
2022/09/25 00:10:05;;;;;;;8.20;4.43;;;15.50;99.90;;;;;;5029376;28;20420;-69
2022/09/25 00:12:31;;;;;;;14.77;4.65;;;15.50;99.90;;;;;;4992519;28;1094971;-69
2022/09/25 00:14:57;;;;;;;11.68;4.13;;;15.40;99.90;;;;;;5031387;28;20147;-69
2022/09/25 00:17:22;;;;;;;10.05;4.07;;;15.40;99.90;;;;;;5030798;28;20025;-68
2022/09/25 00:19:51;;;;;;;14.73;4.22;;;15.40;99.90;;;;;;5031301;28;20021;-69
2022/09/25 00:22:18;;;;;;;13.98;4.35;;;15.30;99.90;;;;;;5031360;28;20500;-69
2022/09/25 00:24:44;;;;;;;11.57;3.72;;;15.30;99.90;;;;;;5031319;28;20107;-69
2022/09/25 00:27:10;;;;;;;9.55;4.03;;;15.30;99.90;;;;;;5031536;28;20060;-69
2022/09/25 00:29:38;;;;;;;15.77;4.40;;;15.30;99.90;;;;;;5030812;28;20107;-69
2022/09/25 00:32:05;;;;;;;13.45;3.97;;;15.30;99.90;;;;;;5031093;28;20091;-69
2022/09/25 00:34:30;;;;;;;12.10;4.10;;;15.20;99.90;;;;;;5029812;28;20048;-69
2022/09/25 00:36:56;;;;;;;10.20;3.75;;;15.20;99.90;;;;;;5030741;28;20022;-69
2022/09/25 00:39:22;;;;;;;11.68;3.55;;;15.30;99.90;;;;;;5031295;28;20046;-69
2022/09/25 00:41:47;;;;;;;13.02;4.00;;;15.20;99.90;;;;;;5031430;28;20422;-69
2022/09/25 00:44:55;;;;;;;14.50;4.18;;;15.20;99.90;;;;;;5029528;28;20030;-69
2022/09/25 00:47:30;;;;;;;11.40;4.10;;;15.20;99.90;;;;;;5031728;28;20032;-69
2022/09/25 00:49:58;;;;;;;11.35;4.00;;;15.20;99.90;;;;;;5031624;28;20025;-69
2022/09/25 00:52:25;;;;;;;13.90;3.50;;;15.20;99.90;;;;;;5031032;28;20481;-69
2022/09/25 00:55:00;;;;;;;15.27;3.67;;;15.20;99.90;;;;;;5029756;28;20111;-69
2022/09/25 00:57:29;;;;;;;11.15;3.70;;;15.20;99.90;;;;;;5031833;28;20017;-69
2022/09/25 01:00:01;;;;;;;11.25;3.53;;;15.20;99.90;;;;;;5030631;28;20028;-69
2022/09/25 01:02:29;;;;;;;11.30;3.10;;;15.20;99.90;;;;;;5031805;28;20032;-69
2022/09/25 01:04:58;;;;;;;14.80;3.47;;;15.10;99.90;;;;;;5030731;28;20401;-69
2022/09/25 01:07:24;;;;;;;12.13;3.40;;;15.10;99.90;;;;;;5031225;28;20033;-69
2022/09/25 01:09:49;;;;;;;16.70;3.75;;;15.10;99.90;;;;;;5031110;28;20104;-69
2022/09/25 01:12:15;;;;;;;11.27;3.95;;;15.10;99.90;;;;;;5031002;28;20037;-69
2022/09/25 01:14:42;;;;;;;11.40;3.38;;;15.10;99.90;;;;;;5034112;28;20025;-70
2022/09/25 01:17:23;;;;;;;10.57;3.13;;;15.10;99.90;;;;;;5035115;28;20017;-69
2022/09/25 01:20:06;;;;;;;12.55;3.50;;;15.10;99.90;;;;;;5034496;28;20448;-69
2022/09/25 01:22:47;;;;;;;;;;;15.10;99.90;;;;;;5035274;28;20109;-69
2022/09/25 01:25:51;;;;;;;11.52;3.45;;;15.10;99.90;;;;;;5034517;28;19963;-69
2022/09/25 01:28:36;;;;;;;10.55;3.38;;;15.20;99.90;;;;;;5033722;28;20026;-69
2022/09/25 01:31:26;;;;;;;8.73;3.25;;;15.20;99.90;;;;;;5029830;28;20059;-69
2022/09/25 01:34:01;;;;;;;14.27;3.38;;;15.10;99.90;;;;;;5033688;28;20045;-69
2022/09/25 01:36:32;;;;;;;10.13;3.33;;;15.00;99.90;;;;;;5033857;28;20017;-69
2022/09/25 01:39:20;;;;;;;9.25;3.13;;;15.00;99.90;;;;;;5033302;28;20175;-69
2022/09/25 01:42:07;;;;;;;11.88;3.08;;;15.00;99.90;;;;;;5033463;28;20024;-70
2022/09/25 01:44:41;;;;;;;14.77;2.50;;;15.00;99.90;;;;;;5034627;28;20148;-69
2022/09/25 01:47:22;;;;;;;8.02;2.97;;;15.00;99.90;;;;;;5033867;28;20030;-69
2022/09/25 01:49:54;;;;;;;12.73;3.42;;;15.00;99.90;;;;;;5032598;28;20034;-69
2022/09/25 01:52:25;;;;;;;10.07;3.15;;;15.00;99.90;;;;;;5034268;28;20028;-70
2022/09/25 01:54:59;;;;;;;8.27;3.00;;;15.10;99.90;;;;;;5032804;28;20025;-69
2022/09/25 01:57:40;;;;;;;11.55;3.08;;;15.00;99.90;;;;;;5032766;28;20075;-69
2022/09/25 02:00:14;;;;;;;9.70;2.70;;;15.00;99.90;;;;;;5032196;28;20549;-69
2022/09/25 02:02:48;;;;;;;11.55;2.92;;;15.00;99.90;;;;;;5034479;28;20075;-69
2022/09/25 02:05:54;;;;;;;11.27;3.35;;;15.00;99.90;;;;;;5032962;28;20033;-69
2022/09/25 02:08:29;;;;;;;15.45;3.58;;;15.00;99.90;;;;;;5011949;28;20121;-69
2022/09/25 02:11:02;;;;;;;13.75;2.90;;;14.90;99.90;;;;;;5011664;28;20025;-69
2022/09/25 02:13:43;;;;;;;7.68;2.78;;;14.90;99.90;;;;;;5024363;28;20087;-69
2022/09/25 02:16:34;;;;;;;9.55;3.17;;;15.00;99.90;;;;;;5027143;28;20141;-68
2022/09/25 02:21:49;;;;;;;10.70;2.83;;;14.90;99.90;;;;;;5031793;28;20109;-69
2022/09/25 02:24:59;;;;;;;16.25;2.78;;;14.90;99.90;;;;;;5030114;28;20017;-69
2022/09/25 02:27:28;;;;;;;12.40;2.78;;;14.90;99.90;;;;;;5004955;28;20029;-68
2022/09/25 02:29:56;;;;;;;12.20;2.88;;;14.90;99.90;;;;;;5030156;28;20041;-69
2022/09/25 02:32:28;;;;;;;12.20;3.42;;;14.90;99.90;;;;;;5033074;28;20017;-69
2022/09/25 02:34:55;;;;;;;13.05;3.38;;;14.80;99.90;;;;;;5030671;28;20481;-69
2022/09/25 02:37:21;;;;;;;10.30;3.33;;;14.80;99.90;;;;;;5033265;28;20017;-69
2022/09/25 02:39:50;;;;;;;10.18;3.05;;;14.80;99.90;;;;;;5032044;28;20032;-69
2022/09/25 02:42:43;;;;;;;11.85;3.22;;;14.80;99.90;;;;;;5032568;28;20018;-69
2022/09/25 02:45:28;;;;;;;;;;;14.70;99.90;;;;;;5032466;28;20053;-69
2022/09/25 02:48:22;;;;;;;12.52;2.95;;;14.70;99.90;;;;;;5030153;28;19913;-69
2022/09/25 02:51:15;;;;;;;9.45;3.15;;;14.70;99.90;;;;;;5032976;28;20079;-69
2022/09/25 02:53:42;;;;;;;;;;;14.70;99.90;;;;;;5031145;28;20034;-69
2022/09/25 02:56:30;;;;;;;13.32;3.67;;;14.70;99.90;;;;;;5031152;28;20010;-69
2022/09/25 02:59:01;;;;;;;14.32;3.42;;;14.70;99.90;;;;;;5029333;28;20033;-69
2022/09/25 03:01:30;;;;;;;6.55;3.30;;;14.70;99.90;;;;;;5032553;28;20017;-69
2022/09/25 03:03:57;;;;;;;8.93;3.65;;;14.70;99.90;;;;;;5032717;28;20025;-69
2022/09/25 03:06:25;;;;;;;9.35;3.92;;;14.60;99.90;;;;;;5033005;28;20017;-69
2022/09/25 03:08:55;;;;;;;10.32;4.22;;;14.60;99.90;;;;;;5030375;28;20026;-69
2022/09/25 03:11:23;;;;;;;11.40;4.10;;;14.60;99.90;;;;;;5032691;28;20021;-69
2022/09/25 03:13:59;;;;;;;18.20;4.18;;;14.60;99.90;;;;;;5032556;28;20033;-69
2022/09/25 03:16:39;;;;;;;12.38;3.85;;;14.60;99.90;;;;;;5032333;28;20029;-69
2022/09/25 03:19:05;;;;;;;11.98;3.95;;;14.60;99.90;;;;;;5032295;28;20030;-69
2022/09/25 03:21:31;;;;;;;14.90;3.75;;;14.50;99.90;;;;;;5029876;28;20383;-69
2022/09/25 03:23:57;;;;;;;16.45;4.40;;;14.50;99.90;;;;;;5030682;28;20026;-69
2022/09/25 03:26:24;;;;;;;16.15;4.20;;;14.50;99.90;;;;;;5031070;28;20056;-69
2022/09/25 03:28:51;;;;;;;12.73;4.75;;;14.40;99.90;;;;;;5029040;28;20059;-69
2022/09/25 03:31:17;;;;;;;14.88;4.03;;;14.40;99.90;;;;;;5031191;28;20546;-69
2022/09/25 03:33:43;;;;;;;10.63;3.65;;;14.30;99.90;;;;;;5031996;28;20034;-69
2022/09/25 03:36:21;;;;;;;16.35;4.07;;;14.30;99.90;;;;;;5032020;28;20025;-69
2022/09/25 03:38:49;;;;;;;21.63;4.32;;;14.30;99.90;;;;;;5032473;28;20021;-69
2022/09/25 03:41:20;;;;;;;15.73;4.03;;;14.40;99.90;;;;;;5032342;28;20029;-69
2022/09/25 03:43:47;;;;;;;8.63;3.83;;;14.30;99.90;;;;;;5032556;28;20026;-69
2022/09/25 03:46:14;;;;;;;13.77;3.80;;;14.40;99.90;;;;;;5032805;28;20079;-69
2022/09/25 03:48:40;;;;;;;11.48;3.58;;;14.30;99.90;;;;;;5031839;28;20462;-69
2022/09/25 03:51:07;;;;;;;11.15;4.00;;;14.40;99.90;;;;;;5032744;28;20026;-69
2022/09/25 03:53:34;;;;;;;9.07;3.75;;;14.30;99.90;;;;;;5031861;28;20076;-69
2022/09/25 03:56:00;;;;;;;11.43;4.20;;;14.30;99.90;;;;;;5014616;28;20030;-69
2022/09/25 03:58:26;;;;;;;12.93;4.43;;;14.30;99.90;;;;;;5011625;28;20052;-69
2022/09/25 04:00:55;;;;;;;16.48;4.22;;;14.30;99.90;;;;;;5027926;28;20526;-69
2022/09/25 04:03:22;;;;;;;8.73;4.00;;;14.30;99.90;;;;;;5031071;28;20032;-69
2022/09/25 04:05:47;;;;;;;16.33;4.28;;;14.30;99.90;;;;;;5032478;28;20026;-69
2022/09/25 04:08:13;;;;;;;11.07;4.00;;;14.20;99.90;;;;;;5032311;28;20029;-69
2022/09/25 04:10:39;;;;;;;14.68;4.15;;;14.20;99.90;;;;;;5032141;28;20433;-69
2022/09/25 04:13:11;;;;;;;15.73;4.63;;;14.20;99.90;;;;;;5030138;28;20033;-69
2022/09/25 04:15:39;;;;;;;11.82;4.05;;;14.20;99.90;;;;;;5032395;28;20029;-69
2022/09/25 04:18:05;;;;;;;10.13;3.92;;;14.30;99.90;;;;;;5032574;28;20044;-69
2022/09/25 04:20:31;;;;;;;13.15;4.18;;;14.20;99.90;;;;;;5028513;28;20038;-69
2022/09/25 04:22:56;;;;;;;11.27;3.95;;;14.20;99.90;;;;;;5015031;28;20044;-68
2022/09/25 04:25:24;;;;;;;14.38;4.40;;;14.20;99.90;;;;;;5017600;28;20017;-69
2022/09/25 04:27:54;;;;;;;12.15;3.75;;;14.20;99.90;;;;;;5031260;28;20018;-69
2022/09/25 04:30:21;;;;;;;6.30;3.88;;;14.10;99.90;;;;;;5031187;28;20542;-69
2022/09/25 04:35:32;;;;;;;13.02;3.83;;;14.10;99.90;;;;;;5013485;28;20044;-69
2022/09/25 04:37:57;;;;;;;10.55;3.72;;;14.10;99.90;;;;;;5025024;28;20021;-69
2022/09/25 04:40:23;;;;;;;10.07;4.28;;;14.10;99.90;;;;;;5031439;28;20032;-69
2022/09/25 04:42:56;;;;;;;12.52;3.95;;;14.10;99.90;;;;;;5031503;28;20052;-69
2022/09/25 04:45:22;;;;;;;8.23;4.00;;;14.10;99.90;;;;;;5032044;28;20104;-69
2022/09/25 04:47:47;;;;;;;15.30;4.35;;;14.10;99.90;;;;;;5032691;28;20052;-68
2022/09/25 04:50:13;;;;;;;9.75;4.15;;;14.10;99.90;;;;;;5034087;28;20034;-69
2022/09/25 04:52:39;;;;;;;13.43;4.10;;;14.10;99.90;;;;;;5035797;28;20037;-68
2022/09/25 04:55:05;;;;;;;11.75;3.60;;;14.10;99.90;;;;;;5035749;28;20022;-69
2022/09/25 04:57:32;;;;;;;11.70;3.95;;;14.10;99.90;;;;;;5034742;28;20025;-68
2022/09/25 04:59:58;;;;;;;7.78;3.95;;;14.10;99.90;;;;;;5035665;28;20048;-69
2022/09/25 05:02:27;;;;;;;9.35;3.72;;;14.10;99.90;;;;;;5035848;28;20505;-69
2022/09/25 05:04:53;;;;;;;7.75;3.97;;;14.00;99.90;;;;;;5034534;28;20009;-69
2022/09/25 05:07:18;;;;;;;12.73;4.35;;;14.00;99.90;;;;;;5035140;28;20112;-69
2022/09/25 05:09:44;;;;;;;12.95;4.47;;;14.00;99.90;;;;;;5035492;28;20045;-68
2022/09/25 05:12:10;;;;;;;11.57;5.28;;;13.90;99.90;;;;;;5034751;28;20105;-68
2022/09/25 05:14:39;;;;;;;15.02;5.88;;;13.90;99.90;;;;;;5025643;28;20045;-69
2022/09/25 05:17:07;;;;;;;13.68;5.95;;;13.90;99.90;;;;;;5032946;28;20024;-68
2022/09/25 05:19:34;;;;;;;13.48;6.13;;;13.90;99.90;;;;;;5035417;28;20013;-68
2022/09/25 05:22:00;;;;;;;16.10;6.47;;;13.80;99.90;;;;;;5034468;28;20033;-68
2022/09/25 05:24:26;;;;;;;21.92;7.07;;;13.80;99.90;;;;;;5035296;28;20025;-69
2022/09/25 05:26:51;;;;;;;17.55;7.82;;;13.70;99.90;;;;;;5035026;28;20101;-68
2022/09/25 05:29:17;;;;;;;19.00;7.82;;;13.80;99.90;;;;;;5033463;28;20053;-69
2022/09/25 05:31:45;;;;;;;12.00;7.18;;;13.70;99.90;;;;;;5034912;28;20487;-69
2022/09/25 05:34:12;;;;;;;12.50;7.00;;;13.70;99.90;;;;;;5035092;28;20132;-69
2022/09/25 05:36:38;;;;;;;20.08;7.78;;;13.70;99.90;;;;;;5034772;28;20466;-68
2022/09/25 05:39:03;;;;;;;14.70;7.60;;;13.70;99.90;;;;;;5035264;28;20036;-69
2022/09/25 05:41:30;;;;;;;17.20;8.40;;;13.60;99.90;;;;;;5034638;28;20036;-69
2022/09/25 05:43:56;;;;;;;15.95;7.78;;;13.70;99.90;;;;;;5033862;28;20494;-69
2022/09/25 05:46:22;;;;;;;14.93;8.00;;;13.60;99.90;;;;;;5034548;28;20037;-68
2022/09/25 05:48:48;;;;;;;12.80;8.48;;;13.60;99.90;;;;;;5034714;28;20021;-69
2022/09/25 05:51:14;;;;;;;14.07;8.25;;;13.60;99.90;;;;;;5033912;28;20037;-69
2022/09/25 05:53:40;;;;;;;15.65;8.13;;;13.60;99.90;;;;;;5034563;28;20047;-68
2022/09/25 05:56:06;;;;;;;11.35;7.95;;;13.50;99.90;;;;;;5034534;28;20025;-68
2022/09/25 05:58:33;;;;;;;17.05;8.40;;;13.50;99.90;;;;;;5034289;28;20486;-68
2022/09/25 06:01:02;;;;;;;13.70;7.90;;;13.50;99.90;;;;;;5034391;28;20490;-68
2022/09/25 06:03:28;;;;;;;15.23;8.00;;;13.40;99.90;;;;;;5033387;28;20100;-69
2022/09/25 06:05:58;;;;;;;16.10;8.80;;;13.40;99.90;;;;;;5031387;28;20497;-68
2022/09/25 06:08:25;;;;;;;18.20;9.15;;;13.50;99.90;;;;;;5033456;28;20370;-68
2022/09/25 06:10:53;;;;;;;13.88;9.30;;;13.40;99.90;;;;;;5027773;28;20104;-68
2022/09/25 06:13:20;;;;;;;16.75;9.35;;;13.40;99.90;;;;;;5032368;28;20088;-67
2022/09/25 06:15:49;;;;;;;18.67;10.57;;;13.40;99.90;;;;;;5033858;28;20029;-66
2022/09/25 06:18:15;;;;;;;23.45;10.80;;;13.40;99.90;;;;;;5031283;28;20474;-67
2022/09/25 06:20:41;;;;;;;14.52;10.18;;;13.40;99.90;;;;;;5033250;28;20044;-67
2022/09/25 06:23:06;;;;;;;20.50;11.10;;;13.40;99.90;;;;;;5033533;28;20026;-67
2022/09/25 06:25:32;;;;;;;20.55;10.88;;;13.30;99.90;;;;;;5032710;28;20041;-67
2022/09/25 06:27:59;;;;;;;18.58;9.85;;;13.30;99.90;;;;;;5034050;28;20381;-67
2022/09/25 06:30:29;;;;;;;18.08;10.32;;;13.30;99.90;;;;;;5033617;28;20120;-67
2022/09/25 06:32:58;;;;;;;19.83;11.65;;;13.30;99.90;;;;;;5031514;28;20086;-67
2022/09/25 06:35:25;;;;;;;18.00;10.13;;;13.30;99.90;;;;;;5033342;28;20105;-68
2022/09/25 06:37:51;;;;;;;20.83;10.32;;;13.30;99.90;;;;;;5033764;28;20060;-67
2022/09/25 06:40:17;;;;;;;17.33;10.02;;;13.30;99.90;;;;;;5033175;28;20033;-67
2022/09/25 06:42:44;;;;;;;18.10;10.10;;;13.30;99.90;;;;;;5033598;28;20108;-67
2022/09/25 06:45:10;;;;;;;17.55;9.77;;;13.30;99.90;;;;;;5033355;28;20084;-67
2022/09/25 06:47:36;;;;;;;18.80;11.25;;;13.30;99.90;;;;;;5033176;28;20075;-67
2022/09/25 06:50:02;;;;;;;20.25;10.77;;;13.30;99.90;;;;;;5033730;28;20057;-67
2022/09/25 06:52:28;;;;;;;18.95;9.95;;;13.30;99.90;;;;;;5033575;28;20045;-67
2022/09/25 06:54:53;;;;;;;18.83;11.02;;;13.30;99.90;;;;;;5033542;28;20504;-67
2022/09/25 06:57:19;;;;;;;22.60;12.35;;;13.20;99.90;;;;;;5033292;28;20386;-68
2022/09/25 06:59:45;;;;;;;19.77;11.48;;;13.30;99.90;;;;;;5033245;28;20049;-68
2022/09/25 07:04:54;;;;;;;22.27;10.98;;;13.30;99.90;;;;;;5032950;28;20476;-68
2022/09/25 07:07:20;;;;;;;21.73;11.50;;;13.20;99.90;;;;;;5032175;28;20022;-69
2022/09/25 07:09:47;;;;;;;20.25;11.80;;;13.20;99.90;;;;;;5031534;28;20092;-69
2022/09/25 07:12:13;;;;;;;17.40;11.35;;;13.20;99.90;;;;;;5032617;28;20048;-69
2022/09/25 07:14:40;;;;;;;22.38;11.73;;;13.20;99.90;;;;;;5031521;28;20622;-68
2022/09/25 07:17:07;;;;;;;23.65;12.27;;;13.10;99.90;;;;;;5033088;28;20116;-68
2022/09/25 07:19:33;;;;;;;21.48;11.70;;;13.10;99.90;;;;;;5033057;28;20017;-68
2022/09/25 07:21:58;;;;;;;23.13;12.73;;;13.20;99.90;;;;;;5033161;28;20032;-68
2022/09/25 07:24:25;;;;;;;22.88;12.30;;;13.10;99.90;;;;;;5032696;28;20022;-69
2022/09/25 07:26:51;;;;;;;18.10;12.07;;;13.20;99.90;;;;;;5037544;28;20186;-68
2022/09/25 07:29:17;;;;;;;18.58;11.82;;;13.30;99.90;;;;;;5041838;28;20021;-68
2022/09/25 07:31:43;;;;;;;22.25;11.80;;;13.30;99.90;;;;;;5032460;28;20037;-69
2022/09/25 07:34:10;;;;;;;19.77;12.32;;;13.30;99.90;;;;;;5032624;28;20466;-68
2022/09/25 07:36:40;;;;;;;23.05;12.35;;;13.30;99.90;;;;;;5026802;28;20014;-69
2022/09/25 07:39:05;;;;;;;21.10;11.25;;;13.20;99.90;;;;;;5013795;28;20022;-68
2022/09/25 07:41:33;;;;;;;19.05;10.52;;;13.30;99.90;;;;;;5031134;28;20492;-69
2022/09/25 07:43:59;;;;;;;25.40;12.00;;;13.30;99.90;;;;;;5032260;28;20037;-69
2022/09/25 07:46:26;;;;;;;21.50;12.15;;;13.30;99.90;;;;;;5048250;28;20029;-68
2022/09/25 07:48:52;;;;;;;18.13;11.18;;;13.30;99.90;;;;;;5052321;28;20025;-68
2022/09/25 07:51:20;;;;;;;23.55;12.35;;;13.30;99.90;;;;;;5052046;28;20025;-68
2022/09/25 07:53:47;;;;;;;19.63;11.65;;;13.50;99.90;;;;;;5052103;28;20033;-68
2022/09/25 07:56:13;;;;;;;21.25;11.48;;;13.50;99.90;;;;;;5041365;28;20026;-68
2022/09/25 07:58:39;;;;;;;19.13;11.63;;;13.60;99.90;;;;;;5030705;28;20107;-68
2022/09/25 08:01:08;;;;;;;27.75;9.95;;;13.50;99.90;;;;;;5032221;28;20018;-68
2022/09/25 08:03:34;;;;;;;17.25;9.30;;;13.60;99.90;;;;;;5032277;28;20140;-68
2022/09/25 08:06:05;;;;;;;15.13;9.45;;;13.70;99.90;;;;;;5032058;28;20474;-69
2022/09/25 08:08:33;;;;;;;24.00;10.48;;;13.70;99.90;;;;;;5040303;28;20378;-68
2022/09/25 08:11:07;;;;;;;23.98;9.55;;;13.70;99.90;;;;;;5038318;28;20071;-68
2022/09/25 08:13:33;;;;;;;21.90;9.95;;;13.80;99.90;;;;;;5030633;28;20601;-69
2022/09/25 08:16:02;;;;;;;20.70;8.93;;;13.80;99.90;;;;;;5031362;28;20113;-68
2022/09/25 08:18:27;;;;;;;18.20;8.32;;;13.80;99.90;;;;;;5030128;28;20033;-68
2022/09/25 08:20:53;;;;;;;15.30;8.07;;;14.00;99.90;;;;;;5031639;28;20432;-68
2022/09/25 08:23:19;;;;;;;17.23;7.63;;;14.00;99.90;;;;;;5033423;28;20104;-68
2022/09/25 08:25:48;;;;;;;16.23;7.53;;;14.00;99.90;;;;;;5036344;28;20108;-67
2022/09/25 08:28:14;;;;;;;12.95;7.00;;;14.20;99.90;;;;;;5037674;28;20064;-67
2022/09/25 08:30:42;;;;;;;12.70;6.55;;;14.20;99.90;;;;;;5035636;28;20029;-67
2022/09/25 08:33:11;;;;;;;12.43;6.25;;;14.20;99.90;;;;;;5033486;28;20021;-68
2022/09/25 08:35:39;;;;;;;15.30;6.85;;;14.30;99.90;;;;;;5034609;28;20022;-68
2022/09/25 08:38:06;;;;;;;12.73;6.18;;;14.40;99.90;;;;;;5035594;28;20026;-69
2022/09/25 08:40:36;;;;;;;12.25;4.88;;;14.50;99.90;;;;;;5035681;28;20029;-69
2022/09/25 08:43:02;;;;;;;15.13;5.40;;;14.60;99.90;;;;;;5035071;28;20070;-68
2022/09/25 08:51:15;;;;;;;10.57;2.78;;;14.70;99.90;;;;;;5016082;28;20520;-69
2022/09/25 08:53:43;;;;;;;9.85;3.03;;;14.70;99.90;;;;;;5015233;28;20051;-69
2022/09/25 08:56:14;;;;;;;12.02;2.80;;;14.80;99.90;;;;;;5015304;28;20022;-69
2022/09/25 08:59:08;;;;;;;17.45;3.42;;;14.90;99.90;;;;;;5027157;28;20022;-69
2022/09/25 09:01:52;;;;;;;12.13;2.97;;;14.90;99.90;;;;;;5032129;28;20118;-69
2022/09/25 09:04:28;;;;;;;10.05;3.20;;;14.90;99.90;;;;;;5008839;28;20505;-69
2022/09/25 09:07:23;;;;;;;11.25;2.63;;;15.00;99.90;;;;;;5033176;28;20024;-69
2022/09/25 09:10:08;;;;;;;12.20;2.13;;;15.00;99.90;;;;;;5030440;28;20030;-70
2022/09/25 09:12:40;;;;;;;8.40;2.22;;;15.10;99.90;;;;;;5033738;28;20509;-69
2022/09/25 09:15:24;;;;;;;12.88;2.42;;;15.10;99.90;;;;;;5035753;28;20087;-69
2022/09/25 09:17:50;;;;;;;5.75;2.05;;;15.20;99.90;;;;;;5035166;28;20075;-69
2022/09/25 09:20:23;;;;;;;11.55;2.10;;;15.30;99.90;;;;;;5033347;28;20370;-69
2022/09/25 09:22:52;;;;;;;10.90;2.10;;;15.40;99.90;;;;;;5035978;28;20049;-69
2022/09/25 09:25:25;;;;;;;12.52;2.05;;;15.60;99.90;;;;;;5036715;28;20026;-69
2022/09/25 09:28:18;;;;;;;6.95;1.77;;;15.60;99.90;;;;;;5034456;28;20393;-69
2022/09/25 09:30:56;;;;;;;8.27;1.67;;;15.70;99.90;;;;;;5033054;28;20409;-69
2022/09/25 09:33:46;;;;;;;10.80;1.98;;;15.90;99.90;;;;;;5037681;28;20147;-69
2022/09/25 09:36:35;;;;;;;7.82;1.23;;;16.10;99.90;;;;;;5034887;28;20100;-69
2022/09/25 09:39:07;;;;;;;7.40;1.42;;;16.10;99.90;;;;;;5028562;28;20095;-70
2022/09/25 09:42:14;;;;;;;9.05;1.88;;;16.10;99.90;;;;;;5048398;28;20022;-70
2022/09/25 09:45:27;;;;;;;6.00;1.50;;;16.20;99.90;;;;;;5047072;28;20148;-70
2022/09/25 09:48:24;;;;;;;7.57;1.60;;;16.30;99.90;;;;;;5023031;28;20027;-69
2022/09/25 09:50:54;;;;;;;4.60;1.10;;;16.50;99.90;;;;;;5038390;28;20033;-70
2022/09/25 09:53:42;;;;;;;8.30;1.35;;;16.50;99.90;;;;;;5050481;28;20410;-70
2022/09/25 09:56:34;;;;;;;5.18;1.38;;;16.60;99.90;;;;;;5043443;28;20066;-69
2022/09/25 09:59:13;;;;;;;4.28;1.50;;;16.90;99.90;;;;;;5036978;28;20025;-70
2022/09/25 10:01:41;;;;;;;4.38;1.00;;;16.90;99.90;;;;;;5042053;28;20508;-70
2022/09/25 10:04:13;;;;;;;6.50;1.20;;;16.90;99.90;;;;;;5034544;28;20060;-70
2022/09/25 10:06:48;;;;;;;5.77;1.13;;;16.90;99.90;;;;;;5039318;28;20105;-70
2022/09/25 10:09:16;;;;;;;6.57;1.52;;;16.70;99.90;;;;;;5048613;28;20271;-70
2022/09/25 10:11:44;;;;;;;6.00;1.50;;;16.80;99.90;;;;;;5039009;28;20048;-70
2022/09/25 10:14:19;;;;;;;6.03;1.20;;;16.60;99.90;;;;;;5042700;28;20045;-70
2022/09/25 10:16:49;;;;;;;8.40;1.67;;;16.70;99.90;;;;;;5032978;28;20116;-69
2022/09/25 10:19:24;;;;;;;4.57;1.17;;;16.90;99.90;;;;;;5036223;28;20026;-70
2022/09/25 10:21:56;;;;;;;4.03;1.33;;;17.30;99.90;;;;;;5046575;28;20026;-70
2022/09/25 10:24:52;;;;;;;6.35;1.30;;;17.50;99.90;;;;;;5044565;28;20355;-70
2022/09/25 10:27:31;;;;;;;6.90;1.20;;;17.70;99.90;;;;;;5034111;28;20056;-69
2022/09/25 10:30:19;;;;;;;6.05;1.27;;;17.80;99.90;;;;;;5030626;28;20062;-70
2022/09/25 10:33:01;;;;;;;7.32;1.30;;;17.50;99.90;;;;;;5030303;28;20021;-70
2022/09/25 10:35:44;;;;;;;10.68;1.60;;;17.30;99.90;;;;;;5019408;28;20025;-71
2022/09/25 10:38:47;;;;;;;8.93;1.40;;;17.10;99.90;;;;;;5041986;28;20021;-70
2022/09/25 10:41:20;;;;;;;4.75;1.30;;;17.10;99.90;;;;;;5049394;28;20024;-70
2022/09/25 10:44:00;;;;;;;6.25;1.10;;;17.20;99.90;;;;;;5039367;28;20024;-69
2022/09/25 10:52:13;;;;;;;2.83;0.95;;;17.20;99.90;;;;;;5041875;28;20445;-71
2022/09/25 10:54:40;;;;;;;2.97;0.90;;;17.00;99.90;;;;;;5039259;28;20477;-71
2022/09/25 10:57:32;;;;;;;5.38;1.05;;;16.90;99.90;;;;;;5032186;28;20020;-71
2022/09/25 11:00:00;;;;;;;4.95;1.20;;;16.80;99.90;;;;;;5030457;28;20112;-71
2022/09/25 11:02:38;;;;;;;4.90;1.02;;;16.80;99.90;;;;;;5029331;28;20029;-71
2022/09/25 11:05:07;;;;;;;5.68;1.00;;;17.10;99.90;;;;;;5033646;28;21316;-70
2022/09/25 11:07:33;;;;;;;4.43;1.27;;;17.40;99.90;;;;;;5030042;28;20017;-70
2022/09/25 11:09:59;;;;;;;7.53;0.90;;;17.80;99.90;;;;;;5032483;28;20044;-70
2022/09/25 11:12:28;;;;;;;4.88;0.80;;;18.10;99.90;;;;;;5041820;28;20043;-71
2022/09/25 11:15:04;;;;;;;3.88;1.10;;;18.20;99.90;;;;;;5035297;28;20080;-69
2022/09/25 11:17:36;;;;;;;3.83;0.73;;;18.20;99.90;;;;;;5035370;28;20032;-70
2022/09/25 11:20:17;;;;;;;9.65;1.02;;;18.20;99.90;;;;;;5050480;28;20090;-69
2022/09/25 11:23:15;;;;;;;4.10;0.90;;;18.00;99.90;;;;;;5038760;28;20040;-69
2022/09/25 11:26:14;;;;;;;2.63;0.70;;;17.70;99.90;;;;;;5025369;28;20025;-69
2022/09/25 11:28:56;;;;;;;3.85;0.77;;;17.60;99.90;;;;;;5027566;28;20037;-69
2022/09/25 11:31:36;;;;;;;3.45;0.85;;;17.80;99.90;;;;;;5032382;28;20024;-69
2022/09/25 11:34:13;;;;;;;2.72;0.70;;;18.00;99.90;;;;;;5028358;28;20398;-69
2022/09/25 11:36:45;;;;;;;3.38;0.70;;;18.20;99.90;;;;;;5029407;28;20048;-69
2022/09/25 11:42:35;;;;;;;1.92;0.77;;;18.70;99.90;;;;;;5039500;28;20036;-69
2022/09/25 11:45:09;;;;;;;2.22;0.60;;;18.90;99.90;;;;;;5030503;28;20037;-69
2022/09/25 11:47:39;;;;;;;2.28;0.68;;;19.00;99.90;;;;;;5025826;28;20060;-69
2022/09/25 11:50:14;;;;;;;3.63;0.75;;;19.00;99.90;;;;;;5029188;28;20029;-69
2022/09/25 11:53:18;;;;;;;5.07;0.95;;;18.70;99.90;;;;;;5031082;28;20550;-69
2022/09/25 11:56:09;;;;;;;2.17;0.77;;;18.80;99.90;;;;;;5033434;28;20163;-69
2022/09/25 11:59:01;;;;;;;3.60;1.30;;;19.00;99.90;;;;;;5043496;28;20029;-69
2022/09/25 12:01:40;;;;;;;3.47;1.95;;;19.20;99.90;;;;;;5026353;28;20045;-70
2022/09/25 12:04:32;;;;;;;8.25;1.25;;;19.30;99.90;;;;;;5018657;28;20026;-69
2022/09/25 12:07:14;;;;;;;4.68;1.10;;;19.30;99.90;;;;;;5029830;28;20062;-69
2022/09/25 12:09:48;;;;;;;5.07;0.90;;;19.40;99.90;;;;;;5030098;28;20025;-69
2022/09/25 12:12:28;;;;;;;1.83;0.80;;;19.20;99.90;;;;;;5030798;28;20033;-69
2022/09/25 12:14:53;;;;;;;2.22;0.90;;;19.00;99.90;;;;;;5029576;28;20470;-69
2022/09/25 12:17:43;;;;;;;3.08;0.80;;;18.80;99.90;;;;;;5033890;28;20040;-69
2022/09/25 12:20:12;;;;;;;6.18;1.00;;;18.70;99.90;;;;;;5028932;28;20053;-73
2022/09/25 12:22:47;;;;;;;3.38;0.90;;;18.60;99.90;;;;;;5032422;28;20030;-73
2022/09/25 12:25:40;;;;;;;4.70;0.75;;;18.50;99.90;;;;;;5034266;28;20063;-73
2022/09/25 12:28:32;;;;;;;4.47;0.88;;;18.40;99.90;;;;;;5032835;28;20057;-69
2022/09/25 12:31:15;;;;;;;3.10;0.93;;;18.60;99.90;;;;;;5019139;28;20084;-69
2022/09/25 12:33:56;;;;;;;7.07;1.10;;;18.80;99.90;;;;;;5030682;28;20153;-68
2022/09/25 12:36:35;;;;;;;2.88;0.88;;;19.00;99.90;;;;;;5031298;28;20128;-70
2022/09/25 12:39:23;;;;;;;4.07;1.33;;;19.00;99.90;;;;;;5039020;28;20045;-70
2022/09/25 12:42:06;;;;;;;4.32;0.90;;;19.10;99.90;;;;;;5028970;28;20540;-69
2022/09/25 12:44:41;;;;;;;3.15;0.90;;;19.10;99.90;;;;;;5037183;28;20060;-69
2022/09/25 12:47:33;;;;;;;5.10;0.93;;;19.20;99.90;;;;;;5032766;28;20037;-69
2022/09/25 12:50:09;;;;;;;2.50;0.90;;;19.20;99.90;;;;;;5048301;28;20172;-69
2022/09/25 12:52:50;;;;;;;3.10;0.50;;;19.30;99.90;;;;;;5037239;28;20028;-69
2022/09/25 12:55:27;;;;;;;2.15;0.68;;;19.40;99.90;;;;;;5047797;28;20022;-70
2022/09/25 12:58:05;;;;;;;3.40;0.85;;;19.50;99.90;;;;;;5027465;28;20033;-69
2022/09/25 13:00:34;;;;;;;2.08;0.73;;;19.50;99.90;;;;;;5042951;28;20025;-69
2022/09/25 13:03:34;;;;;;;5.03;1.38;;;19.50;99.90;;;;;;5029981;28;20036;-69
2022/09/25 13:06:23;;;;;;;3.92;0.75;;;19.50;99.90;;;;;;5030009;28;20052;-68
2022/09/25 13:09:02;;;;;;;3.97;0.80;;;19.70;99.90;;;;;;5046346;28;20049;-70
2022/09/25 13:11:46;;;;;;;1.45;0.80;;;19.60;99.90;;;;;;5021063;28;20378;-68
2022/09/25 13:14:30;;;;;;;3.33;1.10;;;19.60;99.90;;;;;;5034091;28;20049;-68
2022/09/25 13:16:56;;;;;;;1.50;0.60;;;19.50;99.90;;;;;;5033903;28;20020;-69
2022/09/25 13:19:27;;;;;;;2.90;0.70;;;19.30;99.90;;;;;;5037669;28;20112;-69
2022/09/25 13:22:19;;;;;;;5.32;1.52;;;19.40;99.90;;;;;;5032708;28;20471;-69
2022/09/25 13:24:50;;;;;;;2.55;0.80;;;19.30;99.90;;;;;;5033711;28;20025;-70
2022/09/25 13:27:23;;;;;;;4.82;0.93;;;19.30;99.90;;;;;;5040501;28;20053;-69
2022/09/25 13:29:59;;;;;;;3.00;0.70;;;19.20;99.90;;;;;;5045484;28;20027;-69
2022/09/25 13:32:33;;;;;;;2.45;0.80;;;19.30;99.90;;;;;;5037313;28;20040;-69